Time;durP1;ratioP1;P1;durP2;ratioP2;P2;SDS_P1;SDS_P2;PMS_P1;PMS_P2;Temp;Humidity;BMP_temperature;BMP_pressure;BME280_temperature;BME280_humidity;BME280_pressure;Samples;Min_cycle;Max_cycle;Signal;HPM_P1;HPM_P2
2021/10/04 00:01:23;;;;;;;5.40;3.38;;;36.40;17.20;;;;;;5056676;28;20096;-66
2021/10/04 00:03:49;;;;;;;7.75;2.80;;;36.40;17.00;;;;;;5055290;28;20076;-64
2021/10/04 00:06:15;;;;;;;8.27;3.95;;;36.40;17.10;;;;;;5056211;28;20104;-65
2021/10/04 00:08:42;;;;;;;10.77;2.80;;;36.00;22.80;;;;;;5070921;28;20072;-64
2021/10/04 00:11:08;;;;;;;6.13;2.53;;;36.30;17.20;;;;;;5053722;28;20167;-65
2021/10/04 00:13:35;;;;;;;6.50;3.08;;;36.20;16.90;;;;;;5056687;28;20068;-65
2021/10/04 00:16:01;;;;;;;6.32;2.90;;;36.20;17.20;;;;;;5058837;28;20071;-63
2021/10/04 00:18:28;;;;;;;7.47;3.20;;;36.10;17.20;;;;;;5057990;28;20489;-64
2021/10/04 00:20:54;;;;;;;4.05;2.70;;;36.00;17.30;;;;;;5057414;28;20106;-65
2021/10/04 00:23:21;;;;;;;7.90;3.28;;;36.00;17.50;;;;;;5064804;28;20170;-63
2021/10/04 00:25:48;;;;;;;4.40;3.17;;;35.90;17.30;;;;;;5062749;28;20071;-64
2021/10/04 00:28:14;;;;;;;7.43;3.97;;;35.70;17.40;;;;;;5060264;28;20100;-64
2021/10/04 00:30:41;;;;;;;7.20;3.45;;;35.60;17.80;;;;;;5055627;28;20514;-62
2021/10/04 00:33:08;;;;;;;6.90;3.88;;;35.40;17.60;;;;;;5055675;28;20091;-67
2021/10/04 00:35:35;;;;;;;11.35;4.05;;;35.20;18.00;;;;;;5051514;28;20101;-66
2021/10/04 00:38:02;;;;;;;8.27;3.97;;;35.10;18.20;;;;;;5054590;28;20090;-65
2021/10/04 00:40:33;;;;;;;11.52;4.03;;;35.10;18.00;;;;;;5058704;28;20535;-68
2021/10/04 00:43:00;;;;;;;8.20;3.40;;;34.90;18.70;;;;;;5056175;28;20721;-67
2021/10/04 00:45:28;;;;;;;6.15;3.08;;;34.90;18.50;;;;;;5055228;28;20093;-68
2021/10/04 00:47:55;;;;;;;5.70;3.17;;;34.80;18.60;;;;;;5058418;28;20069;-68
2021/10/04 00:50:23;;;;;;;7.75;3.50;;;34.70;18.60;;;;;;5061228;28;20120;-68
2021/10/04 00:52:51;;;;;;;8.07;3.42;;;34.60;18.60;;;;;;5056272;28;20079;-65
2021/10/04 00:55:18;;;;;;;10.07;3.97;;;34.50;18.90;;;;;;5054784;28;20088;-66
2021/10/04 00:57:46;;;;;;;11.25;5.00;;;34.40;19.20;;;;;;5056083;28;20097;-67
2021/10/04 01:00:17;;;;;;;10.13;4.60;;;34.30;19.50;;;;;;5058198;28;20083;-66
2021/10/04 01:02:44;;;;;;;7.60;4.10;;;34.20;19.30;;;;;;5042816;28;20137;-64
2021/10/04 01:05:11;;;;;;;12.20;3.88;;;34.10;18.70;;;;;;5059807;28;20199;-67
2021/10/04 01:07:38;;;;;;;7.30;3.70;;;34.00;19.00;;;;;;5057253;28;20077;-66
2021/10/04 01:10:09;;;;;;;8.15;3.90;;;33.90;19.10;;;;;;5044099;28;20073;-66
2021/10/04 01:12:37;;;;;;;9.18;4.10;;;33.80;18.80;;;;;;5052853;28;20226;-69
2021/10/04 01:15:04;;;;;;;16.48;4.75;;;33.70;19.20;;;;;;5055374;28;20094;-66
2021/10/04 01:17:30;;;;;;;7.57;3.85;;;33.50;19.00;;;;;;5070021;28;20102;-64
2021/10/04 01:19:57;;;;;;;8.50;4.03;;;33.40;19.40;;;;;;5057415;28;20084;-65
2021/10/04 01:22:23;;;;;;;9.80;4.65;;;33.30;19.80;;;;;;5057756;28;20066;-65
2021/10/04 01:24:50;;;;;;;14.20;4.72;;;33.20;20.00;;;;;;5056751;28;20108;-66
2021/10/04 01:27:16;;;;;;;9.68;4.50;;;33.20;20.00;;;;;;5057513;28;20077;-66
2021/10/04 01:29:43;;;;;;;13.65;4.70;;;33.00;20.10;;;;;;5055397;28;20074;-65
2021/10/04 01:32:09;;;;;;;10.15;4.47;;;32.90;20.40;;;;;;5055923;28;20128;-65
2021/10/04 01:34:35;;;;;;;18.02;5.40;;;32.80;20.50;;;;;;5065600;28;20084;-66
2021/10/04 01:37:02;;;;;;;18.08;4.93;;;32.70;20.90;;;;;;5057824;28;20142;-66
2021/10/04 01:39:28;;;;;;;20.98;5.30;;;32.60;21.00;;;;;;5057014;28;20085;-64
2021/10/04 01:41:54;;;;;;;13.05;5.25;;;32.40;21.30;;;;;;5055306;28;20069;-65
2021/10/04 01:44:21;;;;;;;17.85;6.65;;;32.30;21.40;;;;;;5065793;28;20073;-64
2021/10/04 01:46:47;;;;;;;16.20;7.47;;;32.20;21.90;;;;;;5052190;28;20112;-66
2021/10/04 01:49:13;;;;;;;27.65;7.03;;;32.20;22.20;;;;;;5068426;28;20076;-65
2021/10/04 01:51:40;;;;;;;26.60;6.20;;;32.10;22.30;;;;;;5056341;28;20089;-65
2021/10/04 01:54:06;;;;;;;12.40;6.00;;;32.00;22.70;;;;;;5056785;28;20105;-65
2021/10/04 01:56:33;;;;;;;22.65;7.15;;;31.90;22.70;;;;;;5055537;28;20089;-65
2021/10/04 01:58:59;;;;;;;21.73;7.63;;;31.80;22.80;;;;;;5055421;28;20076;-67
2021/10/04 02:01:26;;;;;;;22.17;7.72;;;31.80;23.10;;;;;;5043572;28;20085;-66
2021/10/04 02:03:54;;;;;;;29.77;9.48;;;31.70;23.10;;;;;;5070364;28;20536;-65
2021/10/04 02:06:20;;;;;;;26.67;10.25;;;31.60;23.60;;;;;;5064141;28;20142;-67
2021/10/04 02:08:47;;;;;;;32.80;12.45;;;31.50;23.40;;;;;;5042689;28;20088;-65
2021/10/04 02:11:13;;;;;;;33.92;12.93;;;31.40;23.60;;;;;;5061885;28;20069;-66
2021/10/04 02:13:40;;;;;;;42.72;13.30;;;31.30;24.10;;;;;;5041607;28;20438;-65
2021/10/04 02:16:06;;;;;;;36.42;13.98;;;31.20;24.30;;;;;;5063868;28;20534;-66
2021/10/04 02:18:32;;;;;;;38.95;13.65;;;31.10;24.70;;;;;;5063628;28;20113;-65
2021/10/04 02:20:59;;;;;;;42.10;13.73;;;31.10;24.90;;;;;;5045497;28;20069;-65
2021/10/04 02:23:25;;;;;;;40.05;13.50;;;31.00;25.40;;;;;;5058514;28;20078;-66
2021/10/04 02:25:52;;;;;;;36.30;11.55;;;30.90;25.50;;;;;;5054605;28;20126;-67
2021/10/04 02:28:20;;;;;;;42.28;12.90;;;30.90;25.10;;;;;;5066692;28;20122;-66
2021/10/04 02:30:48;;;;;;;29.92;12.35;;;30.80;25.60;;;;;;5055805;28;20112;-66
2021/10/04 02:33:15;;;;;;;27.95;12.75;;;30.70;25.60;;;;;;5056305;28;20076;-67
2021/10/04 02:35:44;;;;;;;31.00;13.07;;;30.60;25.50;;;;;;5055813;28;20090;-66
2021/10/04 02:38:11;;;;;;;35.45;11.48;;;30.50;26.30;;;;;;5059710;28;20176;-65
2021/10/04 02:40:38;;;;;;;32.78;11.93;;;30.40;26.90;;;;;;5056244;28;20081;-68
2021/10/04 02:43:05;;;;;;;29.00;11.15;;;30.40;26.20;;;;;;5057475;28;21363;-65
2021/10/04 02:45:31;;;;;;;22.20;11.65;;;30.30;26.30;;;;;;5057894;28;20077;-66
2021/10/04 02:48:00;;;;;;;31.42;13.32;;;30.20;26.20;;;;;;5058203;28;20087;-68
2021/10/04 02:50:28;;;;;;;40.17;13.38;;;30.20;26.40;;;;;;5053836;28;20073;-69
2021/10/04 02:52:54;;;;;;;33.33;12.95;;;30.10;27.00;;;;;;5055235;28;20085;-66
2021/10/04 02:55:21;;;;;;;39.63;13.90;;;30.00;26.60;;;;;;5055120;28;20104;-67
2021/10/04 02:57:47;;;;;;;34.28;12.60;;;30.00;27.00;;;;;;5056129;28;20170;-66
2021/10/04 03:00:16;;;;;;;37.63;14.07;;;29.90;27.10;;;;;;5055123;28;20119;-67
2021/10/04 03:02:43;;;;;;;25.30;12.45;;;29.90;27.60;;;;;;5052953;28;20081;-68
2021/10/04 03:05:10;;;;;;;34.95;12.88;;;29.80;27.90;;;;;;5046128;28;20097;-67
2021/10/04 03:07:36;;;;;;;42.58;11.65;;;29.70;27.40;;;;;;5062064;28;20073;-68
2021/10/04 03:10:04;;;;;;;31.77;12.25;;;29.70;27.60;;;;;;5051467;28;20135;-65
2021/10/04 03:12:30;;;;;;;34.05;12.55;;;29.60;27.30;;;;;;5052426;28;20657;-66
2021/10/04 03:14:58;;;;;;;51.72;13.55;;;29.60;27.10;;;;;;5052298;28;20234;-66
2021/10/04 03:17:25;;;;;;;36.05;13.25;;;29.50;27.60;;;;;;5055749;28;20097;-66
2021/10/04 03:19:52;;;;;;;45.28;12.98;;;29.40;27.30;;;;;;5057682;28;20073;-68
2021/10/04 03:22:19;;;;;;;45.30;13.48;;;29.40;27.40;;;;;;5054991;28;20077;-66
2021/10/04 03:24:45;;;;;;;41.15;12.38;;;29.30;27.50;;;;;;5053632;28;20551;-66
2021/10/04 03:27:13;;;;;;;50.47;13.18;;;29.30;27.50;;;;;;5052774;28;20127;-67
2021/10/04 03:29:39;;;;;;;46.42;13.07;;;29.20;28.00;;;;;;5052171;28;20430;-68
2021/10/04 03:32:06;;;;;;;51.30;12.88;;;29.20;28.00;;;;;;5054217;28;20080;-67
2021/10/04 03:34:32;;;;;;;59.67;12.48;;;29.10;27.90;;;;;;5066275;28;20084;-67
2021/10/04 03:37:00;;;;;;;39.15;11.18;;;29.10;28.70;;;;;;5063898;28;20097;-67
2021/10/04 03:39:27;;;;;;;39.15;12.10;;;29.00;28.40;;;;;;5053071;28;20174;-69
2021/10/04 03:41:54;;;;;;;44.15;12.30;;;29.00;28.10;;;;;;5051945;28;20115;-69
2021/10/04 03:44:21;;;;;;;59.67;12.50;;;28.90;28.10;;;;;;5050353;28;20093;-65
2021/10/04 03:46:47;;;;;;;42.88;11.93;;;28.90;28.20;;;;;;5050615;28;20078;-67
2021/10/04 03:49:13;;;;;;;49.63;12.55;;;28.80;28.30;;;;;;5052467;28;20443;-64
2021/10/04 03:51:40;;;;;;;45.88;11.68;;;28.80;28.40;;;;;;5052950;28;20081;-63
2021/10/04 03:54:06;;;;;;;44.15;11.85;;;28.70;28.80;;;;;;5053894;28;20082;-64
2021/10/04 03:56:33;;;;;;;53.58;13.55;;;28.70;29.10;;;;;;5055490;28;20077;-65
2021/10/04 03:58:59;;;;;;;35.03;11.10;;;28.60;29.00;;;;;;5056577;28;20119;-64
2021/10/04 04:01:27;;;;;;;52.05;12.23;;;28.60;29.00;;;;;;5055312;28;20195;-64
2021/10/04 04:03:54;;;;;;;51.90;12.98;;;28.60;28.90;;;;;;5053150;28;20456;-63
2021/10/04 04:06:21;;;;;;;50.60;12.48;;;28.60;28.90;;;;;;5053121;28;20103;-63
2021/10/04 04:08:47;;;;;;;47.30;13.63;;;28.50;28.90;;;;;;5052212;28;20134;-65
2021/10/04 04:11:14;;;;;;;59.22;13.95;;;28.50;29.10;;;;;;5052393;28;20101;-63
2021/10/04 04:13:41;;;;;;;50.80;12.43;;;28.40;29.10;;;;;;5052986;28;20088;-66
2021/10/04 04:16:07;;;;;;;56.17;13.23;;;28.40;29.60;;;;;;5052678;28;20076;-63
2021/10/04 04:18:33;;;;;;;75.18;13.77;;;28.40;30.00;;;;;;5053307;28;20192;-63
2021/10/04 04:21:00;;;;;;;52.50;13.68;;;28.30;29.30;;;;;;5055145;28;20473;-64
2021/10/04 04:23:27;;;;;;;72.57;13.93;;;28.20;29.20;;;;;;5056715;28;20066;-61
2021/10/04 04:25:54;;;;;;;56.55;12.55;;;28.20;29.10;;;;;;5057232;28;20094;-63
2021/10/04 04:28:21;;;;;;;55.35;12.98;;;28.10;28.70;;;;;;5055793;28;20582;-64
2021/10/04 04:30:48;;;;;;;68.63;16.52;;;28.20;29.10;;;;;;5055902;28;20097;-66
2021/10/04 04:33:15;;;;;;;61.20;16.77;;;28.10;28.90;;;;;;5054081;28;20086;-65
2021/10/04 04:35:41;;;;;;;61.50;15.25;;;28.00;29.50;;;;;;5058947;28;20093;-64
2021/10/04 04:38:08;;;;;;;55.83;14.95;;;28.00;29.60;;;;;;5059901;28;20168;-65
2021/10/04 04:40:34;;;;;;;60.67;14.15;;;27.90;29.90;;;;;;5056064;28;20506;-65
2021/10/04 04:43:01;;;;;;;64.22;14.55;;;27.90;30.00;;;;;;5056254;28;20070;-63
2021/10/04 04:45:27;;;;;;;66.80;12.95;;;27.80;30.00;;;;;;5056923;28;20073;-64
2021/10/04 04:47:53;;;;;;;68.75;13.93;;;27.80;30.70;;;;;;5056156;28;20081;-63
2021/10/04 04:50:20;;;;;;;63.92;13.52;;;27.80;30.30;;;;;;5053720;28;20081;-65
2021/10/04 04:52:47;;;;;;;69.38;13.80;;;27.80;30.50;;;;;;5053035;28;20509;-63
2021/10/04 04:55:14;;;;;;;75.05;14.95;;;27.80;30.30;;;;;;5068882;28;20081;-65
2021/10/04 04:57:40;;;;;;;51.75;14.15;;;27.70;30.50;;;;;;5049399;28;20176;-63
2021/10/04 05:00:09;;;;;;;57.88;13.35;;;27.70;30.00;;;;;;5055086;28;20093;-63
2021/10/04 05:02:38;;;;;;;60.75;13.82;;;27.60;30.60;;;;;;5057355;28;20481;-64
2021/10/04 05:05:09;;;;;;;64.53;15.80;;;27.60;30.60;;;;;;5057137;28;20154;-64
2021/10/04 05:07:36;;;;;;;70.82;15.05;;;27.60;30.40;;;;;;5057421;28;20547;-65
2021/10/04 05:10:04;;;;;;;81.97;14.93;;;27.60;30.20;;;;;;5057110;28;20520;-65
2021/10/04 05:12:30;;;;;;;61.90;15.00;;;27.60;30.60;;;;;;5056477;28;20535;-65
2021/10/04 05:14:56;;;;;;;77.75;15.65;;;27.50;30.70;;;;;;5057096;28;20215;-64
2021/10/04 05:17:23;;;;;;;65.65;15.48;;;27.50;30.70;;;;;;5056503;28;20097;-65
2021/10/04 05:19:49;;;;;;;59.70;15.25;;;27.50;30.90;;;;;;5069295;28;20088;-64
2021/10/04 05:22:16;;;;;;;65.30;16.75;;;27.50;31.40;;;;;;5052522;28;20156;-63
2021/10/04 05:24:42;;;;;;;69.68;18.60;;;27.40;32.00;;;;;;5054550;28;20078;-63
2021/10/04 05:27:08;;;;;;;65.45;18.98;;;27.40;32.60;;;;;;5051644;28;20074;-66
2021/10/04 05:29:35;;;;;;;55.38;17.40;;;27.30;32.20;;;;;;5037269;28;20073;-64
2021/10/04 05:32:01;;;;;;;74.10;18.50;;;27.30;32.70;;;;;;5056209;28;20115;-64
2021/10/04 05:34:28;;;;;;;77.93;20.00;;;27.20;32.20;;;;;;5032637;28;20088;-63
2021/10/04 05:36:54;;;;;;;71.40;19.67;;;27.20;31.60;;;;;;5056080;28;20088;-63
2021/10/04 05:39:20;;;;;;;72.00;18.52;;;27.20;31.90;;;;;;5053592;28;20077;-61
2021/10/04 05:41:47;;;;;;;68.55;18.77;;;27.10;32.30;;;;;;5053397;28;20586;-64
2021/10/04 05:44:13;;;;;;;64.68;19.42;;;27.10;32.10;;;;;;5055866;28;20078;-64
2021/10/04 05:46:39;;;;;;;76.13;19.83;;;27.10;33.10;;;;;;5059494;28;20082;-65
2021/10/04 05:49:06;;;;;;;67.85;20.20;;;27.10;32.90;;;;;;5038567;28;20184;-66
2021/10/04 05:51:32;;;;;;;77.35;20.25;;;27.10;32.90;;;;;;5067123;28;20074;-65
2021/10/04 05:53:59;;;;;;;66.80;20.13;;;27.00;33.10;;;;;;5055866;28;20120;-66
2021/10/04 05:56:25;;;;;;;81.47;21.95;;;27.00;33.30;;;;;;5038000;28;20163;-68
2021/10/04 05:58:51;;;;;;;81.35;22.20;;;27.00;33.30;;;;;;5055439;28;20076;-67
2021/10/04 06:01:18;;;;;;;85.68;22.75;;;26.90;33.30;;;;;;5052694;28;20069;-66
2021/10/04 06:03:44;;;;;;;90.47;22.45;;;26.90;32.80;;;;;;5053205;28;20076;-67
2021/10/04 06:06:10;;;;;;;80.88;21.70;;;26.90;33.10;;;;;;5064236;28;20130;-63
2021/10/04 06:08:37;;;;;;;93.78;21.13;;;26.80;32.90;;;;;;5056501;28;20085;-66
2021/10/04 06:11:03;;;;;;;89.43;22.67;;;26.80;32.90;;;;;;5057362;28;20077;-67
2021/10/04 06:13:30;;;;;;;79.85;20.73;;;26.90;33.00;;;;;;5059751;28;20085;-67
2021/10/04 06:15:56;;;;;;;77.20;20.58;;;26.80;32.40;;;;;;5058954;28;20079;-66
2021/10/04 06:18:23;;;;;;;88.38;22.48;;;27.00;33.30;;;;;;5062932;28;20143;-66
2021/10/04 06:20:49;;;;;;;79.80;21.77;;;27.10;33.00;;;;;;5059105;28;20077;-68
2021/10/04 06:23:16;;;;;;;85.03;20.13;;;27.20;34.10;;;;;;5059567;28;20077;-68
2021/10/04 06:25:42;;;;;;;73.55;20.27;;;27.20;33.40;;;;;;5059138;28;20124;-68
2021/10/04 06:28:09;;;;;;;80.68;21.10;;;27.30;33.60;;;;;;5056332;28;20123;-66
2021/10/04 06:30:35;;;;;;;87.47;20.80;;;27.30;33.10;;;;;;5056961;28;20069;-67
2021/10/04 06:33:02;;;;;;;89.75;20.10;;;27.20;32.70;;;;;;5059285;28;20437;-67
2021/10/04 06:35:32;;;;;;;86.88;20.48;;;27.00;32.80;;;;;;5060022;28;20164;-66
2021/10/04 06:38:01;;;;;;;92.03;20.45;;;27.20;33.10;;;;;;5061317;28;20125;-66
2021/10/04 06:40:30;;;;;;;87.90;20.52;;;27.10;32.80;;;;;;5061643;28;20072;-67
2021/10/04 06:42:57;;;;;;;100.13;22.33;;;27.10;34.10;;;;;;5057640;28;20215;-65
2021/10/04 06:45:23;;;;;;;104.00;23.23;;;27.10;32.50;;;;;;5059530;28;20078;-69
2021/10/04 06:47:49;;;;;;;96.82;23.27;;;27.10;33.90;;;;;;5059234;28;20164;-67
2021/10/04 06:50:16;;;;;;;95.28;21.92;;;27.10;33.10;;;;;;5058410;28;20081;-65
2021/10/04 06:52:42;;;;;;;82.35;22.02;;;27.10;33.20;;;;;;5060051;28;20080;-68
2021/10/04 06:55:11;;;;;;;87.78;20.85;;;27.20;33.00;;;;;;5059547;28;20080;-69
2021/10/04 06:57:38;;;;;;;80.15;21.08;;;27.20;33.40;;;;;;5057362;28;20096;-67
2021/10/04 07:00:07;;;;;;;96.15;20.13;;;27.20;32.80;;;;;;5055741;28;20523;-67
2021/10/04 07:02:34;;;;;;;78.22;20.80;;;27.30;33.70;;;;;;5068213;28;20183;-66
2021/10/04 07:05:01;;;;;;;86.75;20.90;;;27.40;32.70;;;;;;5055660;28;20570;-68
2021/10/04 07:07:28;;;;;;;73.93;19.67;;;27.30;32.10;;;;;;5030652;28;20103;-67
2021/10/04 07:09:54;;;;;;;64.50;16.63;;;27.30;32.00;;;;;;5039482;28;20072;-66
2021/10/04 07:12:21;;;;;;;67.18;16.42;;;27.30;31.90;;;;;;5056396;28;20125;-68
2021/10/04 07:14:47;;;;;;;53.88;15.32;;;27.30;31.10;;;;;;5059248;28;20123;-69
2021/10/04 07:17:14;;;;;;;59.28;14.80;;;27.30;30.50;;;;;;5058174;28;20085;-67
2021/10/04 07:19:40;;;;;;;44.33;13.40;;;27.30;30.30;;;;;;5058668;28;20182;-67
2021/10/04 07:22:06;;;;;;;41.42;12.07;;;27.30;29.80;;;;;;5053785;28;20094;-67
2021/10/04 07:24:33;;;;;;;48.22;12.07;;;27.20;29.30;;;;;;5041436;28;20164;-65
2021/10/04 07:27:00;;;;;;;37.33;10.80;;;27.20;29.50;;;;;;5056506;28;20088;-67
2021/10/04 07:29:27;;;;;;;35.30;10.23;;;27.20;29.40;;;;;;5057807;28;20514;-67
2021/10/04 07:31:53;;;;;;;44.53;11.05;;;27.10;28.90;;;;;;5058350;28;20184;-66
2021/10/04 07:34:20;;;;;;;27.33;10.43;;;27.10;28.50;;;;;;5058559;28;20077;-68
2021/10/04 07:36:46;;;;;;;41.75;9.88;;;27.20;28.90;;;;;;5057528;28;20096;-69
2021/10/04 07:39:13;;;;;;;35.05;10.65;;;27.20;29.00;;;;;;5042839;28;20164;-68
2021/10/04 07:41:39;;;;;;;36.92;9.07;;;27.10;28.90;;;;;;5055462;28;20073;-70
2021/10/04 07:44:06;;;;;;;36.70;10.10;;;27.00;28.50;;;;;;5057249;28;20101;-68
2021/10/04 07:46:33;;;;;;;35.70;9.25;;;26.80;28.60;;;;;;5060392;28;20066;-66
2021/10/04 07:48:59;;;;;;;36.38;8.82;;;26.70;29.10;;;;;;5060653;28;20081;-67
2021/10/04 07:51:26;;;;;;;35.67;9.30;;;26.70;29.10;;;;;;5060639;28;20149;-69
2021/10/04 07:53:52;;;;;;;28.00;8.13;;;26.80;29.40;;;;;;5060622;28;20114;-66
2021/10/04 07:56:19;;;;;;;28.52;8.77;;;26.80;29.20;;;;;;5061223;28;20069;-67
2021/10/04 07:58:46;;;;;;;28.55;8.57;;;26.70;29.30;;;;;;5062266;28;20097;-67
2021/10/04 08:01:13;;;;;;;25.48;7.25;;;26.70;29.10;;;;;;5061366;28;20072;-67
2021/10/04 08:03:40;;;;;;;22.85;6.50;;;26.60;28.90;;;;;;5061488;28;20076;-68
2021/10/04 08:06:08;;;;;;;28.63;7.22;;;26.70;28.00;;;;;;5061642;28;20115;-68
2021/10/04 08:08:35;;;;;;;17.88;6.47;;;26.70;28.40;;;;;;5062885;28;20069;-67
2021/10/04 08:11:02;;;;;;;24.50;6.43;;;26.70;28.40;;;;;;5040683;28;20505;-67
2021/10/04 08:13:28;;;;;;;20.40;6.32;;;26.60;28.50;;;;;;5062954;28;20073;-68
2021/10/04 08:15:54;;;;;;;22.05;7.13;;;26.50;28.40;;;;;;5053829;28;20079;-69
2021/10/04 08:18:21;;;;;;;23.45;5.90;;;26.40;28.50;;;;;;5062865;28;20089;-68
2021/10/04 08:20:47;;;;;;;21.63;5.55;;;26.50;28.80;;;;;;5046452;28;20074;-67
2021/10/04 08:23:13;;;;;;;18.45;5.38;;;26.60;29.30;;;;;;5063930;28;20083;-68
2021/10/04 08:25:40;;;;;;;18.38;5.20;;;26.50;28.50;;;;;;5062762;28;20109;-67
2021/10/04 08:28:06;;;;;;;18.25;5.60;;;26.50;28.70;;;;;;5049116;28;20527;-67
2021/10/04 08:30:33;;;;;;;20.73;5.20;;;26.50;28.70;;;;;;5045464;28;20115;-67
2021/10/04 08:32:59;;;;;;;19.10;5.40;;;26.40;28.70;;;;;;5062267;28;20098;-67
2021/10/04 08:35:26;;;;;;;15.55;5.35;;;26.50;29.30;;;;;;5043500;28;20183;-68
2021/10/04 08:37:52;;;;;;;14.32;4.60;;;26.50;29.00;;;;;;5060242;28;20139;-68
2021/10/04 08:40:20;;;;;;;13.63;4.70;;;26.50;28.40;;;;;;5063907;28;20061;-68
2021/10/04 08:42:46;;;;;;;17.10;4.35;;;26.50;28.00;;;;;;5042778;28;20577;-66
2021/10/04 08:45:14;;;;;;;15.25;4.70;;;26.50;28.00;;;;;;5062296;28;20442;-68
2021/10/04 08:47:41;;;;;;;15.40;4.72;;;26.50;28.60;;;;;;5058555;28;20069;-68
2021/10/04 08:50:13;;;;;;;15.43;4.95;;;26.50;28.70;;;;;;5060483;28;20073;-66
2021/10/04 08:52:40;;;;;;;19.20;4.50;;;26.40;28.70;;;;;;5062231;28;20069;-69
2021/10/04 08:55:08;;;;;;;20.80;4.78;;;26.30;28.60;;;;;;5062153;28;20161;-67
2021/10/04 08:57:34;;;;;;;18.30;5.00;;;26.30;29.00;;;;;;5060013;28;20126;-68
2021/10/04 09:00:01;;;;;;;14.85;5.10;;;26.30;29.10;;;;;;5060418;28;20091;-67
2021/10/04 09:02:31;;;;;;;11.18;5.20;;;26.40;29.10;;;;;;5061264;28;20527;-67
2021/10/04 09:05:09;;;;;;;17.23;4.93;;;26.30;29.10;;;;;;5061118;28;20097;-68
2021/10/04 09:07:47;;;;;;;16.17;5.88;;;26.10;28.50;;;;;;5058149;28;20080;-67
2021/10/04 09:10:22;;;;;;;17.10;6.25;;;26.50;28.90;;;;;;5059860;28;20080;-69
2021/10/04 09:12:54;;;;;;;19.33;5.70;;;25.90;29.20;;;;;;5061546;28;20061;-67
2021/10/04 09:15:27;;;;;;;14.55;5.50;;;26.00;29.40;;;;;;5060228;28;20108;-69
2021/10/04 09:17:54;;;;;;;11.60;5.13;;;26.00;29.90;;;;;;5043834;28;20550;-68
2021/10/04 09:20:21;;;;;;;20.83;5.13;;;25.90;29.90;;;;;;5061067;28;20077;-66
2021/10/04 09:22:48;;;;;;;12.88;5.07;;;25.90;29.90;;;;;;5060394;28;20411;-67
2021/10/04 09:25:14;;;;;;;17.25;5.72;;;25.90;29.80;;;;;;5062531;28;20073;-67
2021/10/04 09:27:44;;;;;;;17.17;4.97;;;25.80;30.00;;;;;;5062307;28;20073;-67
2021/10/04 09:30:26;;;;;;;14.40;5.68;;;25.90;30.00;;;;;;5060490;28;20073;-68
2021/10/04 09:33:00;;;;;;;13.85;4.60;;;25.80;30.00;;;;;;5062872;28;20073;-68
2021/10/04 09:35:30;;;;;;;12.93;5.47;;;25.70;30.30;;;;;;5058122;28;20089;-67
2021/10/04 09:37:59;;;;;;;16.35;4.97;;;25.70;30.90;;;;;;5058737;28;20219;-67
2021/10/04 09:40:30;;;;;;;12.63;5.13;;;25.70;31.80;;;;;;5059204;28;20480;-68
2021/10/04 09:42:56;;;;;;;12.02;4.05;;;25.60;31.50;;;;;;5059111;28;20187;-69
2021/10/04 09:45:23;;;;;;;16.98;5.18;;;25.50;31.40;;;;;;5062013;28;20084;-67
2021/10/04 09:47:51;;;;;;;18.30;5.22;;;25.60;31.80;;;;;;5044237;28;20477;-66
2021/10/04 09:50:29;;;;;;;21.73;5.32;;;25.50;32.50;;;;;;5054456;28;20093;-67
2021/10/04 09:53:01;;;;;;;14.85;5.07;;;25.40;32.50;;;;;;5061202;28;20602;-67
2021/10/04 09:55:38;;;;;;;11.88;5.05;;;25.40;32.10;;;;;;5059345;28;20434;-67
2021/10/04 09:58:14;;;;;;;;;;;25.30;31.40;;;;;;5061596;28;20100;-67
2021/10/04 10:00:50;;;;;;;22.27;5.65;;;25.30;31.40;;;;;;5056947;28;19957;-69
2021/10/04 10:03:18;;;;;;;20.37;5.93;;;25.10;32.20;;;;;;5060988;28;20427;-68
2021/10/04 10:05:50;;;;;;;14.77;4.20;;;25.10;32.40;;;;;;5058992;28;20105;-69
2021/10/04 10:08:21;;;;;;;12.93;4.65;;;25.00;33.10;;;;;;5058717;28;20119;-69
2021/10/04 10:10:49;;;;;;;14.15;5.15;;;25.00;33.70;;;;;;5061198;28;20171;-68
2021/10/04 10:13:17;;;;;;;20.20;4.78;;;25.10;33.40;;;;;;5059042;28;20542;-68
2021/10/04 10:16:01;;;;;;;11.35;4.55;;;25.10;33.70;;;;;;5062010;28;20108;-68
2021/10/04 10:19:03;;;;;;;10.77;4.50;;;25.10;34.10;;;;;;5058952;28;20177;-69
2021/10/04 10:21:31;;;;;;;10.90;4.47;;;25.10;33.40;;;;;;5051469;28;20092;-67
2021/10/04 10:24:07;;;;;;;13.00;4.60;;;25.00;33.50;;;;;;5059454;28;20101;-66
2021/10/04 10:26:45;;;;;;;15.07;4.32;;;25.10;33.70;;;;;;5065510;28;20077;-66
2021/10/04 10:29:20;;;;;;;9.23;4.70;;;25.10;33.60;;;;;;5057055;28;20132;-67
2021/10/04 10:31:54;;;;;;;15.10;4.88;;;25.10;33.50;;;;;;5059351;28;20171;-68
2021/10/04 10:34:31;;;;;;;14.18;5.20;;;25.10;33.70;;;;;;5057451;28;20616;-68
2021/10/04 10:36:58;;;;;;;;;;;25.10;33.60;;;;;;5060038;28;20093;-68
2021/10/04 10:40:01;;;;;;;12.13;5.60;;;25.10;32.90;;;;;;5060923;28;19964;-67
2021/10/04 10:42:36;;;;;;;14.70;5.80;;;25.10;33.20;;;;;;5056265;28;20085;-68
2021/10/04 10:45:04;;;;;;;16.25;5.80;;;25.00;33.10;;;;;;5059585;28;20567;-67
2021/10/04 10:47:36;;;;;;;17.23;6.07;;;25.00;33.10;;;;;;5058930;28;20123;-68
2021/10/04 10:50:25;;;;;;;21.40;5.68;;;25.10;33.40;;;;;;5060975;28;20415;-66
2021/10/04 10:52:57;;;;;;;15.60;5.43;;;25.00;33.20;;;;;;5056125;28;20108;-67
2021/10/04 10:55:24;;;;;;;15.00;5.50;;;25.00;33.30;;;;;;5061278;28;20531;-67
2021/10/04 10:57:50;;;;;;;14.50;5.28;;;24.90;33.70;;;;;;5059024;28;20111;-67
2021/10/04 11:00:18;;;;;;;15.02;5.70;;;24.90;33.30;;;;;;5058970;28;20101;-67
2021/10/04 11:02:52;;;;;;;17.73;5.30;;;24.90;33.50;;;;;;5057310;28;20069;-68
2021/10/04 11:05:42;;;;;;;15.93;5.90;;;24.90;34.00;;;;;;5059839;28;20465;-67
2021/10/04 11:08:11;;;;;;;15.13;6.15;;;24.80;33.50;;;;;;5058121;28;20169;-67
2021/10/04 11:10:52;;;;;;;14.95;5.50;;;24.70;33.40;;;;;;5056283;28;20108;-66
2021/10/04 11:13:30;;;;;;;12.52;5.45;;;24.70;34.30;;;;;;5058442;28;20160;-68
2021/10/04 11:16:00;;;;;;;13.63;5.47;;;24.70;34.50;;;;;;5036497;28;20077;-66
2021/10/04 11:18:56;;;;;;;18.35;5.70;;;24.70;34.60;;;;;;5057331;28;20612;-67
2021/10/04 11:21:27;;;;;;;15.77;5.63;;;24.70;34.50;;;;;;4993161;28;20078;-67
2021/10/04 11:24:03;;;;;;;17.48;6.07;;;24.70;34.70;;;;;;4994208;28;20136;-65
2021/10/04 11:26:32;;;;;;;18.20;5.60;;;24.60;34.90;;;;;;5001162;28;20101;-68
2021/10/04 11:29:01;;;;;;;15.55;5.72;;;24.60;35.00;;;;;;5014608;28;20075;-66
2021/10/04 11:31:36;;;;;;;18.13;5.32;;;24.50;34.60;;;;;;5002563;28;20457;-68
2021/10/04 11:34:04;;;;;;;19.00;5.13;;;24.60;34.90;;;;;;5000411;28;20093;-66
2021/10/04 11:36:34;;;;;;;13.50;5.57;;;24.60;35.00;;;;;;5007867;28;20094;-67
2021/10/04 11:39:20;;;;;;;16.02;5.72;;;24.60;35.50;;;;;;4981653;28;20106;-67
2021/10/04 11:41:50;;;;;;;22.60;5.70;;;24.60;35.00;;;;;;4999683;28;20560;-67
2021/10/04 11:44:22;;;;;;;19.30;5.35;;;24.60;35.10;;;;;;5017747;28;20078;-68
2021/10/04 11:46:52;;;;;;;13.65;5.18;;;24.60;35.10;;;;;;5016833;28;20085;-68
2021/10/04 11:49:24;;;;;;;23.42;5.40;;;24.60;34.90;;;;;;4999030;28;20097;-67
2021/10/04 11:51:53;;;;;;;20.88;5.88;;;24.50;34.80;;;;;;5003834;28;20610;-66
2021/10/04 11:54:50;;;;;;;13.52;5.57;;;24.40;34.30;;;;;;4995021;28;20083;-70
2021/10/04 11:57:29;;;;;;;15.07;5.43;;;24.40;34.60;;;;;;4961731;28;20132;-66
2021/10/04 12:00:11;;;;;;;13.15;5.05;;;24.50;34.30;;;;;;4980832;28;20078;-67
2021/10/04 12:02:42;;;;;;;15.70;5.90;;;24.50;34.30;;;;;;4967548;28;20165;-69
2021/10/04 12:05:28;;;;;;;13.38;4.88;;;24.50;34.30;;;;;;4978351;28;20172;-67
2021/10/04 12:08:07;;;;;;;12.73;5.30;;;24.50;34.00;;;;;;4982112;28;20186;-67
2021/10/04 12:10:54;;;;;;;18.90;5.63;;;24.50;33.70;;;;;;4987612;28;20078;-68
2021/10/04 12:13:41;;;;;;;19.73;5.20;;;24.40;34.10;;;;;;4979398;28;20169;-67
2021/10/04 12:16:13;;;;;;;31.75;6.13;;;24.40;33.50;;;;;;4979629;28;20079;-68
2021/10/04 12:18:46;;;;;;;19.00;5.55;;;24.50;34.30;;;;;;4980713;28;20504;-66
2021/10/04 12:21:41;;;;;;;20.02;5.35;;;24.50;34.10;;;;;;4980102;28;20087;-66
2021/10/04 12:24:29;;;;;;;16.83;5.53;;;24.40;34.10;;;;;;4996178;28;20083;-69
2021/10/04 12:27:18;;;;;;;18.75;5.70;;;24.40;34.60;;;;;;4996861;28;20261;-66
2021/10/04 12:29:46;;;;;;;26.70;5.65;;;24.30;35.00;;;;;;4997062;28;20075;-68
2021/10/04 12:32:17;;;;;;;14.57;5.55;;;24.30;35.10;;;;;;4979610;28;20087;-65
2021/10/04 12:35:08;;;;;;;22.58;5.75;;;24.30;35.10;;;;;;5052772;28;20081;-67
2021/10/04 12:37:45;;;;;;;20.33;6.05;;;24.30;35.70;;;;;;5057312;28;20093;-68
2021/10/04 12:40:27;;;;;;;17.95;5.85;;;24.30;35.10;;;;;;5062196;28;20073;-67
2021/10/04 12:43:14;;;;;;;20.55;5.75;;;24.20;35.10;;;;;;5039535;28;20139;-67